Terminal Aerodrome Forecast
Issued by NWS

Home | Current Version | Previous Version | Text Only | Print | Product List | Glossary On
Versions: 1 2 3 4 5 6 7 8 9 10 11 12 13 14 15
000
FTUS44 KLIX 262324
TAFGPT
TAF
KGPT 262324Z 2700/2724 13016KT P6SM SKC
     FM270900 15010KT P6SM BKN090
     FM271100 15010KT P6SM SCT100
     FM271300 15011KT P6SM VCSH BKN070
     FM272000 17015KT P6SM -SHRA VCTS BKN025CB OVC040=

USA.gov is the U.S. government's official web portal to all federal, state and local government web resources and services.